sensor_id;sensor_type;location;lat;lon;timestamp;P1;durP1;ratioP1;P2;durP2;ratioP2
12990;SDS011;6560;57.692;11.958;2024-02-26T00:02:16;1.70;;;1.60;;
12990;SDS011;6560;57.692;11.958;2024-02-26T00:04:43;2.83;;;2.10;;
12990;SDS011;6560;57.692;11.958;2024-02-26T00:07:08;1.97;;;1.70;;
12990;SDS011;6560;57.692;11.958;2024-02-26T00:09:34;3.10;;;1.87;;
12990;SDS011;6560;57.692;11.958;2024-02-26T00:12:02;1.80;;;1.50;;
12990;SDS011;6560;57.692;11.958;2024-02-26T00:14:29;4.90;;;1.90;;
12990;SDS011;6560;57.692;11.958;2024-02-26T00:16:55;1.97;;;1.50;;
12990;SDS011;6560;57.692;11.958;2024-02-26T00:19:20;2.43;;;2.00;;
12990;SDS011;6560;57.692;11.958;2024-02-26T00:21:46;1.73;;;1.50;;
12990;SDS011;6560;57.692;11.958;2024-02-26T00:24:11;1.60;;;1.50;;
12990;SDS011;6560;57.692;11.958;2024-02-26T00:26:36;1.77;;;1.67;;
12990;SDS011;6560;57.692;11.958;2024-02-26T00:29:02;2.33;;;1.50;;
12990;SDS011;6560;57.692;11.958;2024-02-26T00:31:27;2.57;;;1.83;;
12990;SDS011;6560;57.692;11.958;2024-02-26T00:33:53;3.07;;;2.13;;
12990;SDS011;6560;57.692;11.958;2024-02-26T00:36:18;1.97;;;1.57;;
12990;SDS011;6560;57.692;11.958;2024-02-26T00:38:44;2.00;;;1.80;;
12990;SDS011;6560;57.692;11.958;2024-02-26T00:41:11;2.97;;;2.20;;
12990;SDS011;6560;57.692;11.958;2024-02-26T00:43:36;1.73;;;1.63;;
12990;SDS011;6560;57.692;11.958;2024-02-26T00:46:04;2.53;;;1.67;;
12990;SDS011;6560;57.692;11.958;2024-02-26T00:48:30;2.83;;;1.63;;
12990;SDS011;6560;57.692;11.958;2024-02-26T00:50:55;1.73;;;1.57;;
12990;SDS011;6560;57.692;11.958;2024-02-26T00:53:21;3.17;;;1.90;;
12990;SDS011;6560;57.692;11.958;2024-02-26T00:55:46;3.60;;;1.97;;
12990;SDS011;6560;57.692;11.958;2024-02-26T00:58:11;3.30;;;2.00;;
12990;SDS011;6560;57.692;11.958;2024-02-26T01:00:37;2.70;;;1.90;;
12990;SDS011;6560;57.692;11.958;2024-02-26T01:03:03;1.83;;;1.70;;
12990;SDS011;6560;57.692;11.958;2024-02-26T01:05:29;4.27;;;2.10;;
12990;SDS011;6560;57.692;11.958;2024-02-26T01:07:55;2.10;;;1.60;;
12990;SDS011;6560;57.692;11.958;2024-02-26T01:10:20;2.57;;;1.90;;
12990;SDS011;6560;57.692;11.958;2024-02-26T01:12:45;3.10;;;2.10;;
12990;SDS011;6560;57.692;11.958;2024-02-26T01:15:11;3.83;;;1.80;;
12990;SDS011;6560;57.692;11.958;2024-02-26T01:17:36;3.23;;;2.30;;
12990;SDS011;6560;57.692;11.958;2024-02-26T01:20:02;3.27;;;2.20;;
12990;SDS011;6560;57.692;11.958;2024-02-26T01:22:27;2.13;;;1.90;;
12990;SDS011;6560;57.692;11.958;2024-02-26T01:24:53;2.20;;;2.03;;
12990;SDS011;6560;57.692;11.958;2024-02-26T01:27:18;2.70;;;2.50;;
12990;SDS011;6560;57.692;11.958;2024-02-26T01:29:44;1.87;;;1.77;;
12990;SDS011;6560;57.692;11.958;2024-02-26T01:32:10;2.57;;;1.87;;
12990;SDS011;6560;57.692;11.958;2024-02-26T01:34:35;4.37;;;2.10;;
12990;SDS011;6560;57.692;11.958;2024-02-26T01:37:02;2.10;;;1.90;;
12990;SDS011;6560;57.692;11.958;2024-02-26T01:39:27;3.43;;;2.07;;
12990;SDS011;6560;57.692;11.958;2024-02-26T01:41:55;3.23;;;2.47;;
12990;SDS011;6560;57.692;11.958;2024-02-26T01:44:21;6.00;;;2.57;;
12990;SDS011;6560;57.692;11.958;2024-02-26T01:46:46;3.40;;;2.67;;
12990;SDS011;6560;57.692;11.958;2024-02-26T01:49:12;3.90;;;1.97;;
12990;SDS011;6560;57.692;11.958;2024-02-26T01:51:38;2.63;;;1.93;;
12990;SDS011;6560;57.692;11.958;2024-02-26T01:54:05;3.50;;;2.23;;
12990;SDS011;6560;57.692;11.958;2024-02-26T01:56:31;3.27;;;2.17;;
12990;SDS011;6560;57.692;11.958;2024-02-26T01:58:57;2.77;;;2.20;;
12990;SDS011;6560;57.692;11.958;2024-02-26T02:01:30;3.33;;;2.53;;
12990;SDS011;6560;57.692;11.958;2024-02-26T02:03:57;4.83;;;2.40;;
12990;SDS011;6560;57.692;11.958;2024-02-26T02:06:23;2.77;;;2.43;;
12990;SDS011;6560;57.692;11.958;2024-02-26T02:08:49;3.30;;;2.70;;
12990;SDS011;6560;57.692;11.958;2024-02-26T02:11:14;3.07;;;2.73;;
12990;SDS011;6560;57.692;11.958;2024-02-26T02:13:40;3.97;;;2.10;;
12990;SDS011;6560;57.692;11.958;2024-02-26T02:16:06;3.20;;;2.27;;
12990;SDS011;6560;57.692;11.958;2024-02-26T02:18:31;3.23;;;2.60;;
12990;SDS011;6560;57.692;11.958;2024-02-26T02:20:57;4.83;;;2.80;;
12990;SDS011;6560;57.692;11.958;2024-02-26T02:23:25;5.20;;;3.17;;
12990;SDS011;6560;57.692;11.958;2024-02-26T02:25:51;3.57;;;2.50;;
12990;SDS011;6560;57.692;11.958;2024-02-26T02:28:16;2.43;;;2.23;;
12990;SDS011;6560;57.692;11.958;2024-02-26T02:30:42;2.60;;;2.40;;
12990;SDS011;6560;57.692;11.958;2024-02-26T02:33:07;2.90;;;2.60;;
12990;SDS011;6560;57.692;11.958;2024-02-26T02:35:33;4.17;;;2.60;;
12990;SDS011;6560;57.692;11.958;2024-02-26T02:37:58;3.90;;;2.50;;
12990;SDS011;6560;57.692;11.958;2024-02-26T02:40:24;3.67;;;2.60;;
12990;SDS011;6560;57.692;11.958;2024-02-26T02:42:49;2.90;;;2.60;;
12990;SDS011;6560;57.692;11.958;2024-02-26T02:45:14;4.37;;;2.70;;
12990;SDS011;6560;57.692;11.958;2024-02-26T02:47:40;4.07;;;3.07;;
12990;SDS011;6560;57.692;11.958;2024-02-26T02:50:06;4.27;;;2.60;;
12990;SDS011;6560;57.692;11.958;2024-02-26T02:52:31;2.87;;;2.60;;
12990;SDS011;6560;57.692;11.958;2024-02-26T02:54:57;3.50;;;2.47;;
12990;SDS011;6560;57.692;11.958;2024-02-26T02:57:23;5.27;;;2.70;;
12990;SDS011;6560;57.692;11.958;2024-02-26T02:59:48;3.43;;;2.70;;
12990;SDS011;6560;57.692;11.958;2024-02-26T03:02:14;2.90;;;2.70;;
12990;SDS011;6560;57.692;11.958;2024-02-26T03:04:39;3.13;;;2.13;;
12990;SDS011;6560;57.692;11.958;2024-02-26T03:07:05;3.20;;;2.60;;
12990;SDS011;6560;57.692;11.958;2024-02-26T03:09:30;5.53;;;2.83;;
12990;SDS011;6560;57.692;11.958;2024-02-26T03:11:56;3.70;;;2.90;;
12990;SDS011;6560;57.692;11.958;2024-02-26T03:14:21;5.27;;;2.87;;
12990;SDS011;6560;57.692;11.958;2024-02-26T03:16:47;3.80;;;3.00;;
12990;SDS011;6560;57.692;11.958;2024-02-26T03:19:16;4.03;;;2.50;;
12990;SDS011;6560;57.692;11.958;2024-02-26T03:21:41;4.73;;;2.93;;
12990;SDS011;6560;57.692;11.958;2024-02-26T03:24:07;4.03;;;2.73;;
12990;SDS011;6560;57.692;11.958;2024-02-26T03:26:35;3.50;;;3.20;;
12990;SDS011;6560;57.692;11.958;2024-02-26T03:29:01;4.90;;;3.17;;
12990;SDS011;6560;57.692;11.958;2024-02-26T03:31:27;4.10;;;3.03;;
12990;SDS011;6560;57.692;11.958;2024-02-26T03:33:53;4.47;;;3.00;;
12990;SDS011;6560;57.692;11.958;2024-02-26T03:36:18;4.33;;;3.30;;
12990;SDS011;6560;57.692;11.958;2024-02-26T03:38:44;3.83;;;3.00;;
12990;SDS011;6560;57.692;11.958;2024-02-26T03:41:09;5.33;;;2.97;;
12990;SDS011;6560;57.692;11.958;2024-02-26T03:43:35;4.73;;;3.03;;
12990;SDS011;6560;57.692;11.958;2024-02-26T03:46:00;4.03;;;3.20;;
12990;SDS011;6560;57.692;11.958;2024-02-26T03:48:26;4.40;;;2.80;;
12990;SDS011;6560;57.692;11.958;2024-02-26T03:50:51;4.23;;;2.87;;
12990;SDS011;6560;57.692;11.958;2024-02-26T03:53:17;5.63;;;2.90;;
12990;SDS011;6560;57.692;11.958;2024-02-26T03:55:43;3.57;;;2.80;;
12990;SDS011;6560;57.692;11.958;2024-02-26T03:58:08;3.73;;;3.03;;
12990;SDS011;6560;57.692;11.958;2024-02-26T04:00:34;4.33;;;3.00;;
12990;SDS011;6560;57.692;11.958;2024-02-26T04:02:59;8.50;;;4.27;;
12990;SDS011;6560;57.692;11.958;2024-02-26T04:05:25;4.43;;;3.10;;
12990;SDS011;6560;57.692;11.958;2024-02-26T04:07:50;3.33;;;3.03;;
12990;SDS011;6560;57.692;11.958;2024-02-26T04:10:16;4.37;;;3.27;;
12990;SDS011;6560;57.692;11.958;2024-02-26T04:12:42;4.70;;;3.20;;
12990;SDS011;6560;57.692;11.958;2024-02-26T04:15:08;3.87;;;2.83;;
12990;SDS011;6560;57.692;11.958;2024-02-26T04:17:34;2.80;;;2.57;;
12990;SDS011;6560;57.692;11.958;2024-02-26T04:20:00;3.30;;;2.97;;
12990;SDS011;6560;57.692;11.958;2024-02-26T04:22:25;3.83;;;2.93;;
12990;SDS011;6560;57.692;11.958;2024-02-26T04:24:50;4.10;;;2.80;;
12990;SDS011;6560;57.692;11.958;2024-02-26T04:27:16;4.07;;;2.97;;
12990;SDS011;6560;57.692;11.958;2024-02-26T04:29:41;8.97;;;3.90;;
12990;SDS011;6560;57.692;11.958;2024-02-26T04:32:07;4.23;;;3.30;;
12990;SDS011;6560;57.692;11.958;2024-02-26T04:34:32;4.50;;;3.40;;
12990;SDS011;6560;57.692;11.958;2024-02-26T04:36:58;4.10;;;3.00;;
12990;SDS011;6560;57.692;11.958;2024-02-26T04:39:23;5.37;;;3.20;;
12990;SDS011;6560;57.692;11.958;2024-02-26T04:41:49;3.10;;;2.80;;
12990;SDS011;6560;57.692;11.958;2024-02-26T04:44:15;6.00;;;3.03;;
12990;SDS011;6560;57.692;11.958;2024-02-26T04:46:41;4.07;;;2.90;;
12990;SDS011;6560;57.692;11.958;2024-02-26T04:49:06;4.40;;;2.87;;
12990;SDS011;6560;57.692;11.958;2024-02-26T04:51:32;3.23;;;2.83;;
12990;SDS011;6560;57.692;11.958;2024-02-26T04:53:57;5.73;;;3.57;;
12990;SDS011;6560;57.692;11.958;2024-02-26T04:56:22;5.17;;;3.13;;
12990;SDS011;6560;57.692;11.958;2024-02-26T04:58:48;4.73;;;2.87;;
12990;SDS011;6560;57.692;11.958;2024-02-26T05:01:14;4.20;;;2.90;;
12990;SDS011;6560;57.692;11.958;2024-02-26T05:03:41;4.00;;;3.47;;
12990;SDS011;6560;57.692;11.958;2024-02-26T05:06:08;3.83;;;2.70;;
12990;SDS011;6560;57.692;11.958;2024-02-26T05:08:34;3.93;;;3.30;;
12990;SDS011;6560;57.692;11.958;2024-02-26T05:11:01;3.70;;;2.83;;
12990;SDS011;6560;57.692;11.958;2024-02-26T05:13:27;3.47;;;2.90;;
12990;SDS011;6560;57.692;11.958;2024-02-26T05:15:53;3.87;;;2.83;;
12990;SDS011;6560;57.692;11.958;2024-02-26T05:18:19;4.60;;;3.17;;
12990;SDS011;6560;57.692;11.958;2024-02-26T05:20:44;3.10;;;2.70;;
12990;SDS011;6560;57.692;11.958;2024-02-26T05:23:10;4.73;;;3.33;;
12990;SDS011;6560;57.692;11.958;2024-02-26T05:25:35;3.20;;;2.40;;
12990;SDS011;6560;57.692;11.958;2024-02-26T05:28:00;3.43;;;3.13;;
12990;SDS011;6560;57.692;11.958;2024-02-26T05:30:26;4.03;;;2.83;;
12990;SDS011;6560;57.692;11.958;2024-02-26T05:32:53;3.30;;;2.90;;
12990;SDS011;6560;57.692;11.958;2024-02-26T05:35:19;4.77;;;2.90;;
12990;SDS011;6560;57.692;11.958;2024-02-26T05:37:44;3.83;;;2.80;;
12990;SDS011;6560;57.692;11.958;2024-02-26T05:40:10;3.67;;;3.03;;
12990;SDS011;6560;57.692;11.958;2024-02-26T05:42:36;5.33;;;3.00;;
12990;SDS011;6560;57.692;11.958;2024-02-26T05:45:01;3.10;;;2.80;;
12990;SDS011;6560;57.692;11.958;2024-02-26T05:47:32;5.83;;;3.23;;
12990;SDS011;6560;57.692;11.958;2024-02-26T05:49:58;5.30;;;2.83;;
12990;SDS011;6560;57.692;11.958;2024-02-26T05:52:25;4.53;;;3.07;;
12990;SDS011;6560;57.692;11.958;2024-02-26T05:54:51;3.27;;;2.80;;
12990;SDS011;6560;57.692;11.958;2024-02-26T05:57:17;3.57;;;2.70;;
12990;SDS011;6560;57.692;11.958;2024-02-26T05:59:43;3.57;;;2.83;;
12990;SDS011;6560;57.692;11.958;2024-02-26T06:02:09;3.93;;;3.53;;
12990;SDS011;6560;57.692;11.958;2024-02-26T06:04:34;4.27;;;2.93;;
12990;SDS011;6560;57.692;11.958;2024-02-26T06:06:59;5.17;;;3.00;;
12990;SDS011;6560;57.692;11.958;2024-02-26T06:09:25;3.70;;;3.03;;
12990;SDS011;6560;57.692;11.958;2024-02-26T06:11:50;4.33;;;3.50;;
12990;SDS011;6560;57.692;11.958;2024-02-26T06:14:16;4.00;;;3.53;;
12990;SDS011;6560;57.692;11.958;2024-02-26T06:16:43;4.43;;;3.70;;
12990;SDS011;6560;57.692;11.958;2024-02-26T06:19:09;3.63;;;3.07;;
12990;SDS011;6560;57.692;11.958;2024-02-26T06:21:35;6.53;;;3.23;;
12990;SDS011;6560;57.692;11.958;2024-02-26T06:24:01;5.10;;;2.93;;
12990;SDS011;6560;57.692;11.958;2024-02-26T06:26:26;5.47;;;3.43;;
12990;SDS011;6560;57.692;11.958;2024-02-26T06:28:55;3.73;;;3.17;;
12990;SDS011;6560;57.692;11.958;2024-02-26T06:31:23;5.13;;;3.73;;
12990;SDS011;6560;57.692;11.958;2024-02-26T06:33:52;5.77;;;3.83;;
12990;SDS011;6560;57.692;11.958;2024-02-26T06:36:18;5.60;;;3.57;;
12990;SDS011;6560;57.692;11.958;2024-02-26T06:38:43;4.03;;;3.63;;
12990;SDS011;6560;57.692;11.958;2024-02-26T06:41:09;7.00;;;3.90;;
12990;SDS011;6560;57.692;11.958;2024-02-26T06:43:34;5.20;;;3.60;;
12990;SDS011;6560;57.692;11.958;2024-02-26T06:46:00;5.53;;;3.97;;
12990;SDS011;6560;57.692;11.958;2024-02-26T06:48:25;7.93;;;4.47;;
12990;SDS011;6560;57.692;11.958;2024-02-26T06:50:51;5.27;;;4.37;;
12990;SDS011;6560;57.692;11.958;2024-02-26T06:53:16;4.97;;;3.93;;
12990;SDS011;6560;57.692;11.958;2024-02-26T06:55:42;4.70;;;4.20;;
12990;SDS011;6560;57.692;11.958;2024-02-26T06:58:08;4.73;;;4.23;;
12990;SDS011;6560;57.692;11.958;2024-02-26T07:00:34;5.30;;;4.50;;
12990;SDS011;6560;57.692;11.958;2024-02-26T07:03:00;6.10;;;4.87;;
12990;SDS011;6560;57.692;11.958;2024-02-26T07:05:25;6.37;;;4.33;;
12990;SDS011;6560;57.692;11.958;2024-02-26T07:07:51;5.30;;;4.80;;
12990;SDS011;6560;57.692;11.958;2024-02-26T07:10:17;6.87;;;5.63;;
12990;SDS011;6560;57.692;11.958;2024-02-26T07:12:42;6.97;;;5.40;;
12990;SDS011;6560;57.692;11.958;2024-02-26T07:15:08;8.17;;;5.20;;
12990;SDS011;6560;57.692;11.958;2024-02-26T07:17:34;7.60;;;4.83;;
12990;SDS011;6560;57.692;11.958;2024-02-26T07:20:00;6.77;;;5.30;;
12990;SDS011;6560;57.692;11.958;2024-02-26T07:22:25;7.63;;;5.40;;
12990;SDS011;6560;57.692;11.958;2024-02-26T07:24:51;7.87;;;5.53;;
12990;SDS011;6560;57.692;11.958;2024-02-26T07:27:17;6.37;;;5.10;;
12990;SDS011;6560;57.692;11.958;2024-02-26T07:29:43;12.10;;;5.87;;
12990;SDS011;6560;57.692;11.958;2024-02-26T07:32:08;7.40;;;5.17;;
12990;SDS011;6560;57.692;11.958;2024-02-26T07:34:35;6.70;;;5.50;;
12990;SDS011;6560;57.692;11.958;2024-02-26T07:37:02;5.77;;;5.20;;
12990;SDS011;6560;57.692;11.958;2024-02-26T07:39:28;10.27;;;6.23;;
12990;SDS011;6560;57.692;11.958;2024-02-26T07:41:53;9.57;;;5.63;;
12990;SDS011;6560;57.692;11.958;2024-02-26T07:44:19;5.80;;;5.17;;
12990;SDS011;6560;57.692;11.958;2024-02-26T07:46:44;6.20;;;5.10;;
12990;SDS011;6560;57.692;11.958;2024-02-26T07:49:10;8.77;;;5.80;;
12990;SDS011;6560;57.692;11.958;2024-02-26T07:51:35;8.93;;;5.57;;
12990;SDS011;6560;57.692;11.958;2024-02-26T07:54:01;6.47;;;5.27;;
12990;SDS011;6560;57.692;11.958;2024-02-26T07:56:26;5.77;;;4.90;;
12990;SDS011;6560;57.692;11.958;2024-02-26T07:58:52;9.83;;;5.20;;
12990;SDS011;6560;57.692;11.958;2024-02-26T08:01:17;8.97;;;5.00;;
12990;SDS011;6560;57.692;11.958;2024-02-26T08:03:43;5.43;;;4.63;;
12990;SDS011;6560;57.692;11.958;2024-02-26T08:06:08;9.07;;;5.10;;
12990;SDS011;6560;57.692;11.958;2024-02-26T08:08:34;5.40;;;4.53;;
12990;SDS011;6560;57.692;11.958;2024-02-26T08:10:59;5.63;;;4.43;;
12990;SDS011;6560;57.692;11.958;2024-02-26T08:13:25;5.97;;;5.20;;
12990;SDS011;6560;57.692;11.958;2024-02-26T08:15:51;7.33;;;5.27;;
12990;SDS011;6560;57.692;11.958;2024-02-26T08:18:17;7.03;;;5.20;;
12990;SDS011;6560;57.692;11.958;2024-02-26T08:20:42;5.43;;;4.67;;
12990;SDS011;6560;57.692;11.958;2024-02-26T08:23:08;6.00;;;5.10;;
12990;SDS011;6560;57.692;11.958;2024-02-26T08:25:33;7.17;;;6.00;;
12990;SDS011;6560;57.692;11.958;2024-02-26T08:27:59;5.77;;;4.83;;
12990;SDS011;6560;57.692;11.958;2024-02-26T08:30:24;8.83;;;5.03;;
12990;SDS011;6560;57.692;11.958;2024-02-26T08:32:50;8.00;;;5.20;;
12990;SDS011;6560;57.692;11.958;2024-02-26T08:35:16;11.70;;;5.90;;
12990;SDS011;6560;57.692;11.958;2024-02-26T08:37:44;7.07;;;5.60;;
12990;SDS011;6560;57.692;11.958;2024-02-26T08:40:10;7.20;;;5.73;;
12990;SDS011;6560;57.692;11.958;2024-02-26T08:42:36;8.93;;;6.10;;
12990;SDS011;6560;57.692;11.958;2024-02-26T08:45:02;7.00;;;6.00;;
12990;SDS011;6560;57.692;11.958;2024-02-26T08:47:27;10.73;;;6.73;;
12990;SDS011;6560;57.692;11.958;2024-02-26T08:49:53;11.70;;;7.43;;
12990;SDS011;6560;57.692;11.958;2024-02-26T08:52:19;8.73;;;6.40;;
12990;SDS011;6560;57.692;11.958;2024-02-26T08:54:45;7.33;;;6.57;;
12990;SDS011;6560;57.692;11.958;2024-02-26T08:57:10;9.73;;;7.20;;
12990;SDS011;6560;57.692;11.958;2024-02-26T08:59:36;8.27;;;7.07;;
12990;SDS011;6560;57.692;11.958;2024-02-26T09:02:01;8.43;;;7.33;;
12990;SDS011;6560;57.692;11.958;2024-02-26T09:04:27;7.17;;;6.47;;
12990;SDS011;6560;57.692;11.958;2024-02-26T09:06:53;8.30;;;7.10;;
12990;SDS011;6560;57.692;11.958;2024-02-26T09:09:19;8.43;;;6.63;;
12990;SDS011;6560;57.692;11.958;2024-02-26T09:11:45;9.73;;;6.60;;
12990;SDS011;6560;57.692;11.958;2024-02-26T09:14:10;8.63;;;6.67;;
12990;SDS011;6560;57.692;11.958;2024-02-26T09:16:36;10.00;;;6.20;;
12990;SDS011;6560;57.692;11.958;2024-02-26T09:19:01;12.70;;;8.30;;
12990;SDS011;6560;57.692;11.958;2024-02-26T09:21:28;11.47;;;7.73;;
12990;SDS011;6560;57.692;11.958;2024-02-26T09:23:53;9.87;;;7.37;;
12990;SDS011;6560;57.692;11.958;2024-02-26T09:26:19;9.53;;;7.20;;
12990;SDS011;6560;57.692;11.958;2024-02-26T09:28:45;8.13;;;7.30;;
12990;SDS011;6560;57.692;11.958;2024-02-26T09:31:10;12.50;;;7.20;;
12990;SDS011;6560;57.692;11.958;2024-02-26T09:33:36;13.10;;;7.73;;
12990;SDS011;6560;57.692;11.958;2024-02-26T09:36:02;14.20;;;7.70;;
12990;SDS011;6560;57.692;11.958;2024-02-26T09:38:29;8.23;;;6.17;;
12990;SDS011;6560;57.692;11.958;2024-02-26T09:40:56;9.80;;;6.50;;
12990;SDS011;6560;57.692;11.958;2024-02-26T09:43:22;8.07;;;5.90;;
12990;SDS011;6560;57.692;11.958;2024-02-26T09:45:51;6.50;;;5.63;;
12990;SDS011;6560;57.692;11.958;2024-02-26T09:48:18;6.20;;;5.20;;
12990;SDS011;6560;57.692;11.958;2024-02-26T09:50:44;6.30;;;5.70;;
12990;SDS011;6560;57.692;11.958;2024-02-26T09:53:10;6.07;;;5.47;;
12990;SDS011;6560;57.692;11.958;2024-02-26T09:55:36;12.70;;;6.43;;
12990;SDS011;6560;57.692;11.958;2024-02-26T09:58:02;6.40;;;5.80;;
12990;SDS011;6560;57.692;11.958;2024-02-26T10:00:30;7.83;;;6.07;;
12990;SDS011;6560;57.692;11.958;2024-02-26T10:02:59;5.60;;;5.00;;
12990;SDS011;6560;57.692;11.958;2024-02-26T10:05:27;5.83;;;4.60;;
12990;SDS011;6560;57.692;11.958;2024-02-26T10:07:54;9.20;;;4.97;;
12990;SDS011;6560;57.692;11.958;2024-02-26T10:10:22;5.20;;;4.70;;
12990;SDS011;6560;57.692;11.958;2024-02-26T10:12:48;6.03;;;5.40;;
12990;SDS011;6560;57.692;11.958;2024-02-26T10:15:14;4.53;;;4.13;;
12990;SDS011;6560;57.692;11.958;2024-02-26T10:17:41;6.83;;;4.77;;
12990;SDS011;6560;57.692;11.958;2024-02-26T10:20:13;7.33;;;4.30;;
12990;SDS011;6560;57.692;11.958;2024-02-26T10:22:40;6.37;;;4.57;;
12990;SDS011;6560;57.692;11.958;2024-02-26T10:25:06;5.83;;;4.27;;
12990;SDS011;6560;57.692;11.958;2024-02-26T10:27:33;3.57;;;3.27;;
12990;SDS011;6560;57.692;11.958;2024-02-26T10:30:02;4.70;;;4.30;;
12990;SDS011;6560;57.692;11.958;2024-02-26T10:32:47;4.27;;;3.87;;
12990;SDS011;6560;57.692;11.958;2024-02-26T10:35:16;4.37;;;3.97;;
12990;SDS011;6560;57.692;11.958;2024-02-26T10:37:43;5.20;;;4.63;;
12990;SDS011;6560;57.692;11.958;2024-02-26T10:40:12;5.70;;;4.67;;
12990;SDS011;6560;57.692;11.958;2024-02-26T10:42:38;7.13;;;5.20;;
12990;SDS011;6560;57.692;11.958;2024-02-26T10:45:04;4.10;;;3.80;;
12990;SDS011;6560;57.692;11.958;2024-02-26T10:47:31;4.17;;;3.70;;
12990;SDS011;6560;57.692;11.958;2024-02-26T10:49:58;4.90;;;4.07;;
12990;SDS011;6560;57.692;11.958;2024-02-26T10:52:24;4.13;;;3.40;;
12990;SDS011;6560;57.692;11.958;2024-02-26T10:54:51;3.40;;;3.20;;
12990;SDS011;6560;57.692;11.958;2024-02-26T10:57:19;6.30;;;3.83;;
12990;SDS011;6560;57.692;11.958;2024-02-26T10:59:45;3.30;;;3.00;;
12990;SDS011;6560;57.692;11.958;2024-02-26T11:02:10;3.57;;;3.27;;
12990;SDS011;6560;57.692;11.958;2024-02-26T11:04:37;3.63;;;3.33;;
12990;SDS011;6560;57.692;11.958;2024-02-26T11:07:03;3.07;;;2.87;;
12990;SDS011;6560;57.692;11.958;2024-02-26T11:09:29;3.27;;;3.07;;
12990;SDS011;6560;57.692;11.958;2024-02-26T11:11:56;3.57;;;3.27;;
12990;SDS011;6560;57.692;11.958;2024-02-26T11:14:22;4.07;;;2.77;;
12990;SDS011;6560;57.692;11.958;2024-02-26T11:16:50;3.40;;;3.10;;
12990;SDS011;6560;57.692;11.958;2024-02-26T11:19:16;2.63;;;2.43;;
12990;SDS011;6560;57.692;11.958;2024-02-26T11:21:42;4.67;;;3.23;;
12990;SDS011;6560;57.692;11.958;2024-02-26T11:24:12;3.73;;;3.40;;
12990;SDS011;6560;57.692;11.958;2024-02-26T11:26:49;4.67;;;3.17;;
12990;SDS011;6560;57.692;11.958;2024-02-26T11:29:24;4.63;;;3.77;;
12990;SDS011;6560;57.692;11.958;2024-02-26T11:31:51;3.43;;;3.13;;
12990;SDS011;6560;57.692;11.958;2024-02-26T11:34:17;3.40;;;3.10;;
12990;SDS011;6560;57.692;11.958;2024-02-26T11:36:43;3.80;;;3.50;;
12990;SDS011;6560;57.692;11.958;2024-02-26T11:39:08;4.43;;;3.20;;
12990;SDS011;6560;57.692;11.958;2024-02-26T11:41:37;3.33;;;3.00;;
12990;SDS011;6560;57.692;11.958;2024-02-26T11:44:03;3.97;;;3.23;;
12990;SDS011;6560;57.692;11.958;2024-02-26T11:46:32;3.20;;;2.90;;
12990;SDS011;6560;57.692;11.958;2024-02-26T11:48:59;5.00;;;3.53;;
12990;SDS011;6560;57.692;11.958;2024-02-26T11:51:32;3.17;;;2.87;;
12990;SDS011;6560;57.692;11.958;2024-02-26T11:53:58;3.70;;;3.40;;
12990;SDS011;6560;57.692;11.958;2024-02-26T11:56:24;3.83;;;3.17;;
12990;SDS011;6560;57.692;11.958;2024-02-26T11:58:57;3.73;;;3.43;;
12990;SDS011;6560;57.692;11.958;2024-02-26T12:04:13;4.10;;;3.70;;
12990;SDS011;6560;57.692;11.958;2024-02-26T12:06:50;4.03;;;3.00;;
12990;SDS011;6560;57.692;11.958;2024-02-26T12:12:03;3.50;;;3.20;;
12990;SDS011;6560;57.692;11.958;2024-02-26T12:14:29;3.40;;;3.10;;
12990;SDS011;6560;57.692;11.958;2024-02-26T12:16:58;2.90;;;2.70;;
12990;SDS011;6560;57.692;11.958;2024-02-26T12:19:23;4.33;;;3.93;;
12990;SDS011;6560;57.692;11.958;2024-02-26T12:21:52;4.37;;;3.97;;
12990;SDS011;6560;57.692;11.958;2024-02-26T12:24:21;5.73;;;4.43;;
12990;SDS011;6560;57.692;11.958;2024-02-26T12:26:47;4.30;;;3.73;;
12990;SDS011;6560;57.692;11.958;2024-02-26T12:29:12;5.03;;;3.50;;
12990;SDS011;6560;57.692;11.958;2024-02-26T12:31:38;4.80;;;4.27;;
12990;SDS011;6560;57.692;11.958;2024-02-26T12:34:05;4.93;;;3.73;;
12990;SDS011;6560;57.692;11.958;2024-02-26T12:36:32;5.50;;;3.40;;
12990;SDS011;6560;57.692;11.958;2024-02-26T12:38:59;3.60;;;3.30;;
12990;SDS011;6560;57.692;11.958;2024-02-26T12:41:25;4.27;;;3.87;;
12990;SDS011;6560;57.692;11.958;2024-02-26T12:43:52;6.03;;;4.07;;
12990;SDS011;6560;57.692;11.958;2024-02-26T12:46:18;3.73;;;3.43;;
12990;SDS011;6560;57.692;11.958;2024-02-26T12:48:43;4.30;;;3.90;;
12990;SDS011;6560;57.692;11.958;2024-02-26T12:51:12;3.87;;;3.53;;
12990;SDS011;6560;57.692;11.958;2024-02-26T12:53:40;5.20;;;4.70;;
12990;SDS011;6560;57.692;11.958;2024-02-26T12:56:08;4.60;;;4.20;;
12990;SDS011;6560;57.692;11.958;2024-02-26T12:58:34;4.40;;;3.33;;
12990;SDS011;6560;57.692;11.958;2024-02-26T13:01:00;4.10;;;3.47;;
12990;SDS011;6560;57.692;11.958;2024-02-26T13:03:26;4.77;;;3.57;;
12990;SDS011;6560;57.692;11.958;2024-02-26T13:05:52;4.97;;;3.40;;
12990;SDS011;6560;57.692;11.958;2024-02-26T13:08:19;4.13;;;3.73;;
12990;SDS011;6560;57.692;11.958;2024-02-26T13:10:48;4.43;;;3.77;;
12990;SDS011;6560;57.692;11.958;2024-02-26T13:13:15;3.60;;;3.30;;
12990;SDS011;6560;57.692;11.958;2024-02-26T13:15:42;5.60;;;4.00;;
12990;SDS011;6560;57.692;11.958;2024-02-26T13:18:11;6.73;;;4.27;;
12990;SDS011;6560;57.692;11.958;2024-02-26T13:20:38;4.13;;;3.83;;
12990;SDS011;6560;57.692;11.958;2024-02-26T13:23:06;3.93;;;3.63;;
12990;SDS011;6560;57.692;11.958;2024-02-26T13:25:33;3.87;;;3.57;;
12990;SDS011;6560;57.692;11.958;2024-02-26T13:28:16;4.47;;;4.07;;
12990;SDS011;6560;57.692;11.958;2024-02-26T13:30:51;7.20;;;4.37;;
12990;SDS011;6560;57.692;11.958;2024-02-26T13:33:18;6.17;;;5.20;;
12990;SDS011;6560;57.692;11.958;2024-02-26T13:35:44;4.77;;;4.33;;
12990;SDS011;6560;57.692;11.958;2024-02-26T13:38:10;4.33;;;3.93;;
12990;SDS011;6560;57.692;11.958;2024-02-26T13:40:35;4.37;;;3.97;;
12990;SDS011;6560;57.692;11.958;2024-02-26T13:43:01;4.27;;;3.87;;
12990;SDS011;6560;57.692;11.958;2024-02-26T13:45:27;3.90;;;3.60;;
12990;SDS011;6560;57.692;11.958;2024-02-26T13:47:52;3.90;;;3.50;;
12990;SDS011;6560;57.692;11.958;2024-02-26T13:50:18;5.53;;;4.03;;
12990;SDS011;6560;57.692;11.958;2024-02-26T13:52:46;3.37;;;2.90;;
12990;SDS011;6560;57.692;11.958;2024-02-26T13:55:12;3.60;;;3.20;;
12990;SDS011;6560;57.692;11.958;2024-02-26T13:57:39;3.87;;;3.43;;
12990;SDS011;6560;57.692;11.958;2024-02-26T14:00:05;3.63;;;3.33;;
12990;SDS011;6560;57.692;11.958;2024-02-26T14:02:32;4.83;;;3.67;;
12990;SDS011;6560;57.692;11.958;2024-02-26T14:04:59;4.77;;;3.37;;
12990;SDS011;6560;57.692;11.958;2024-02-26T14:07:28;4.40;;;3.90;;
12990;SDS011;6560;57.692;11.958;2024-02-26T14:09:54;3.87;;;3.47;;
12990;SDS011;6560;57.692;11.958;2024-02-26T14:12:19;3.77;;;3.47;;
12990;SDS011;6560;57.692;11.958;2024-02-26T14:14:44;3.80;;;3.50;;
12990;SDS011;6560;57.692;11.958;2024-02-26T14:17:16;5.43;;;3.73;;
12990;SDS011;6560;57.692;11.958;2024-02-26T14:19:41;9.27;;;4.20;;
12990;SDS011;6560;57.692;11.958;2024-02-26T14:22:12;4.13;;;3.23;;
12990;SDS011;6560;57.692;11.958;2024-02-26T14:24:38;5.50;;;3.63;;
12990;SDS011;6560;57.692;11.958;2024-02-26T14:27:05;3.60;;;3.30;;
12990;SDS011;6560;57.692;11.958;2024-02-26T14:29:31;4.40;;;4.00;;
12990;SDS011;6560;57.692;11.958;2024-02-26T14:31:56;5.20;;;3.67;;
12990;SDS011;6560;57.692;11.958;2024-02-26T14:34:23;4.50;;;4.10;;
12990;SDS011;6560;57.692;11.958;2024-02-26T14:36:49;4.47;;;3.83;;
12990;SDS011;6560;57.692;11.958;2024-02-26T14:39:14;5.17;;;4.30;;
12990;SDS011;6560;57.692;11.958;2024-02-26T14:41:40;7.03;;;4.23;;
12990;SDS011;6560;57.692;11.958;2024-02-26T14:44:05;4.70;;;4.20;;
12990;SDS011;6560;57.692;11.958;2024-02-26T14:46:31;4.43;;;4.03;;
12990;SDS011;6560;57.692;11.958;2024-02-26T14:48:56;6.13;;;5.13;;